sensor_id;sensor_type;location;lat;lon;timestamp;P1;durP1;ratioP1;P2;durP2;ratioP2
76125;SDS011;65174;48.138;21.002;2024-02-26T00:02:36;12.82;;;7.32;;
76125;SDS011;65174;48.138;21.002;2024-02-26T00:05:39;14.45;;;8.45;;
76125;SDS011;65174;48.138;21.002;2024-02-26T00:08:41;13.15;;;7.93;;
76125;SDS011;65174;48.138;21.002;2024-02-26T00:11:43;12.70;;;8.27;;
76125;SDS011;65174;48.138;21.002;2024-02-26T00:14:45;12.95;;;8.52;;
76125;SDS011;65174;48.138;21.002;2024-02-26T00:17:51;16.55;;;8.45;;
76125;SDS011;65174;48.138;21.002;2024-02-26T00:20:53;12.32;;;8.02;;
76125;SDS011;65174;48.138;21.002;2024-02-26T00:23:55;13.13;;;7.78;;
76125;SDS011;65174;48.138;21.002;2024-02-26T00:26:58;11.37;;;7.33;;
76125;SDS011;65174;48.138;21.002;2024-02-26T00:30:01;11.25;;;7.07;;
76125;SDS011;65174;48.138;21.002;2024-02-26T00:33:03;12.32;;;7.05;;
76125;SDS011;65174;48.138;21.002;2024-02-26T00:36:05;12.63;;;7.15;;
76125;SDS011;65174;48.138;21.002;2024-02-26T00:39:11;11.50;;;7.85;;
76125;SDS011;65174;48.138;21.002;2024-02-26T00:42:13;12.27;;;7.97;;
76125;SDS011;65174;48.138;21.002;2024-02-26T00:45:15;13.95;;;8.05;;
76125;SDS011;65174;48.138;21.002;2024-02-26T00:48:18;11.70;;;7.13;;
76125;SDS011;65174;48.138;21.002;2024-02-26T00:51:20;13.13;;;7.45;;
76125;SDS011;65174;48.138;21.002;2024-02-26T00:54:26;13.25;;;7.32;;
76125;SDS011;65174;48.138;21.002;2024-02-26T00:57:28;10.30;;;6.73;;
76125;SDS011;65174;48.138;21.002;2024-02-26T01:00:30;11.80;;;6.50;;
76125;SDS011;65174;48.138;21.002;2024-02-26T01:03:32;15.10;;;7.25;;
76125;SDS011;65174;48.138;21.002;2024-02-26T01:06:34;10.80;;;7.00;;
76125;SDS011;65174;48.138;21.002;2024-02-26T01:09:36;11.73;;;7.22;;
76125;SDS011;65174;48.138;21.002;2024-02-26T01:12:38;9.77;;;5.97;;
76125;SDS011;65174;48.138;21.002;2024-02-26T01:15:40;11.63;;;7.35;;
76125;SDS011;65174;48.138;21.002;2024-02-26T01:18:43;12.02;;;6.50;;
76125;SDS011;65174;48.138;21.002;2024-02-26T01:21:45;11.75;;;6.78;;
76125;SDS011;65174;48.138;21.002;2024-02-26T01:24:47;12.98;;;7.30;;
76125;SDS011;65174;48.138;21.002;2024-02-26T01:27:49;12.77;;;7.30;;
76125;SDS011;65174;48.138;21.002;2024-02-26T01:30:51;13.35;;;6.93;;
76125;SDS011;65174;48.138;21.002;2024-02-26T01:33:53;10.90;;;6.30;;
76125;SDS011;65174;48.138;21.002;2024-02-26T01:36:55;9.30;;;6.38;;
76125;SDS011;65174;48.138;21.002;2024-02-26T01:39:57;10.38;;;5.95;;
76125;SDS011;65174;48.138;21.002;2024-02-26T01:42:59;8.80;;;5.57;;
76125;SDS011;65174;48.138;21.002;2024-02-26T01:46:02;8.70;;;5.20;;
76125;SDS011;65174;48.138;21.002;2024-02-26T01:49:05;8.80;;;5.43;;
76125;SDS011;65174;48.138;21.002;2024-02-26T01:52:08;8.43;;;5.45;;
76125;SDS011;65174;48.138;21.002;2024-02-26T01:55:11;10.05;;;5.70;;
76125;SDS011;65174;48.138;21.002;2024-02-26T01:58:15;8.83;;;5.70;;
76125;SDS011;65174;48.138;21.002;2024-02-26T02:01:18;11.95;;;5.88;;
76125;SDS011;65174;48.138;21.002;2024-02-26T02:04:29;7.65;;;4.45;;
76125;SDS011;65174;48.138;21.002;2024-02-26T02:07:32;11.73;;;6.50;;
76125;SDS011;65174;48.138;21.002;2024-02-26T02:10:34;8.32;;;5.22;;
76125;SDS011;65174;48.138;21.002;2024-02-26T02:13:37;8.50;;;5.73;;
76125;SDS011;65174;48.138;21.002;2024-02-26T02:16:39;8.05;;;5.55;;
76125;SDS011;65174;48.138;21.002;2024-02-26T02:19:43;12.02;;;5.82;;
76125;SDS011;65174;48.138;21.002;2024-02-26T02:22:45;8.85;;;6.00;;
76125;SDS011;65174;48.138;21.002;2024-02-26T02:25:48;14.45;;;6.88;;
76125;SDS011;65174;48.138;21.002;2024-02-26T02:28:50;10.17;;;6.77;;
76125;SDS011;65174;48.138;21.002;2024-02-26T02:31:52;11.15;;;6.38;;
76125;SDS011;65174;48.138;21.002;2024-02-26T02:34:55;10.45;;;6.53;;
76125;SDS011;65174;48.138;21.002;2024-02-26T02:37:58;12.73;;;6.80;;
76125;SDS011;65174;48.138;21.002;2024-02-26T02:41:00;13.48;;;7.53;;
76125;SDS011;65174;48.138;21.002;2024-02-26T02:44:02;13.00;;;7.20;;
76125;SDS011;65174;48.138;21.002;2024-02-26T02:47:04;15.40;;;7.63;;
76125;SDS011;65174;48.138;21.002;2024-02-26T02:50:06;15.98;;;8.02;;
76125;SDS011;65174;48.138;21.002;2024-02-26T02:53:08;15.23;;;8.70;;
76125;SDS011;65174;48.138;21.002;2024-02-26T02:56:10;16.85;;;9.00;;
76125;SDS011;65174;48.138;21.002;2024-02-26T02:59:12;16.27;;;7.37;;
76125;SDS011;65174;48.138;21.002;2024-02-26T03:02:14;18.85;;;8.65;;
76125;SDS011;65174;48.138;21.002;2024-02-26T03:05:16;18.00;;;9.07;;
76125;SDS011;65174;48.138;21.002;2024-02-26T03:08:18;17.20;;;8.18;;
76125;SDS011;65174;48.138;21.002;2024-02-26T03:11:20;17.25;;;8.57;;
76125;SDS011;65174;48.138;21.002;2024-02-26T03:14:22;17.50;;;8.93;;
76125;SDS011;65174;48.138;21.002;2024-02-26T03:17:24;18.05;;;8.82;;
76125;SDS011;65174;48.138;21.002;2024-02-26T03:20:26;21.83;;;9.77;;
76125;SDS011;65174;48.138;21.002;2024-02-26T03:23:28;39.55;;;9.75;;
76125;SDS011;65174;48.138;21.002;2024-02-26T03:26:32;36.75;;;8.98;;
76125;SDS011;65174;48.138;21.002;2024-02-26T03:29:34;69.10;;;9.70;;
76125;SDS011;65174;48.138;21.002;2024-02-26T03:32:37;36.58;;;9.70;;
76125;SDS011;65174;48.138;21.002;2024-02-26T03:35:39;36.55;;;10.55;;
76125;SDS011;65174;48.138;21.002;2024-02-26T03:38:42;31.83;;;9.88;;
76125;SDS011;65174;48.138;21.002;2024-02-26T03:41:47;38.42;;;9.60;;
76125;SDS011;65174;48.138;21.002;2024-02-26T03:44:49;19.03;;;9.40;;
76125;SDS011;65174;48.138;21.002;2024-02-26T03:48:14;32.70;;;8.45;;
76125;SDS011;65174;48.138;21.002;2024-02-26T03:51:16;21.23;;;10.68;;
76125;SDS011;65174;48.138;21.002;2024-02-26T03:54:18;25.42;;;9.70;;
76125;SDS011;65174;48.138;21.002;2024-02-26T03:57:20;31.83;;;10.27;;
76125;SDS011;65174;48.138;21.002;2024-02-26T04:00:22;69.73;;;10.20;;
76125;SDS011;65174;48.138;21.002;2024-02-26T04:03:24;47.70;;;9.93;;
76125;SDS011;65174;48.138;21.002;2024-02-26T04:06:27;43.20;;;9.48;;
76125;SDS011;65174;48.138;21.002;2024-02-26T04:09:31;46.30;;;9.70;;
76125;SDS011;65174;48.138;21.002;2024-02-26T04:12:33;53.08;;;9.82;;
76125;SDS011;65174;48.138;21.002;2024-02-26T04:15:35;98.00;;;11.87;;
76125;SDS011;65174;48.138;21.002;2024-02-26T04:18:37;117.30;;;11.00;;
76125;SDS011;65174;48.138;21.002;2024-02-26T04:21:41;65.35;;;8.93;;
76125;SDS011;65174;48.138;21.002;2024-02-26T04:24:44;143.05;;;10.82;;
76125;SDS011;65174;48.138;21.002;2024-02-26T04:27:46;54.35;;;10.43;;
76125;SDS011;65174;48.138;21.002;2024-02-26T04:30:48;101.30;;;9.67;;
76125;SDS011;65174;48.138;21.002;2024-02-26T04:33:49;96.68;;;9.52;;
76125;SDS011;65174;48.138;21.002;2024-02-26T04:36:52;95.28;;;10.13;;
76125;SDS011;65174;48.138;21.002;2024-02-26T04:39:54;59.13;;;8.70;;
76125;SDS011;65174;48.138;21.002;2024-02-26T04:42:55;42.25;;;9.13;;
76125;SDS011;65174;48.138;21.002;2024-02-26T04:45:58;78.27;;;10.27;;
76125;SDS011;65174;48.138;21.002;2024-02-26T04:49:00;80.57;;;10.68;;
76125;SDS011;65174;48.138;21.002;2024-02-26T04:52:02;77.00;;;11.50;;
76125;SDS011;65174;48.138;21.002;2024-02-26T04:55:05;80.40;;;11.43;;
76125;SDS011;65174;48.138;21.002;2024-02-26T04:58:07;63.45;;;11.07;;
76125;SDS011;65174;48.138;21.002;2024-02-26T05:01:12;61.33;;;11.67;;
76125;SDS011;65174;48.138;21.002;2024-02-26T05:04:14;62.78;;;11.55;;
76125;SDS011;65174;48.138;21.002;2024-02-26T05:07:16;59.25;;;11.38;;
76125;SDS011;65174;48.138;21.002;2024-02-26T05:10:21;39.38;;;14.68;;
76125;SDS011;65174;48.138;21.002;2024-02-26T05:13:30;37.17;;;16.88;;
76125;SDS011;65174;48.138;21.002;2024-02-26T05:28:46;41.00;;;14.07;;
76125;SDS011;65174;48.138;21.002;2024-02-26T05:31:48;30.38;;;14.77;;
76125;SDS011;65174;48.138;21.002;2024-02-26T05:34:50;26.48;;;13.52;;
76125;SDS011;65174;48.138;21.002;2024-02-26T05:37:52;34.37;;;13.10;;
76125;SDS011;65174;48.138;21.002;2024-02-26T05:40:55;54.90;;;12.05;;
76125;SDS011;65174;48.138;21.002;2024-02-26T05:43:57;60.33;;;11.05;;
76125;SDS011;65174;48.138;21.002;2024-02-26T05:47:00;57.75;;;10.30;;
76125;SDS011;65174;48.138;21.002;2024-02-26T05:50:06;71.80;;;13.05;;
76125;SDS011;65174;48.138;21.002;2024-02-26T05:53:18;80.57;;;12.10;;
76125;SDS011;65174;48.138;21.002;2024-02-26T05:56:23;44.67;;;13.10;;
76125;SDS011;65174;48.138;21.002;2024-02-26T05:59:25;31.75;;;13.43;;
76125;SDS011;65174;48.138;21.002;2024-02-26T06:02:27;33.03;;;13.00;;
76125;SDS011;65174;48.138;21.002;2024-02-26T06:05:29;33.67;;;15.23;;
76125;SDS011;65174;48.138;21.002;2024-02-26T06:08:31;31.87;;;14.00;;
76125;SDS011;65174;48.138;21.002;2024-02-26T06:11:33;32.58;;;14.05;;
76125;SDS011;65174;48.138;21.002;2024-02-26T06:14:35;31.08;;;14.95;;
76125;SDS011;65174;48.138;21.002;2024-02-26T06:17:37;26.48;;;13.40;;
76125;SDS011;65174;48.138;21.002;2024-02-26T06:20:39;28.17;;;14.82;;
76125;SDS011;65174;48.138;21.002;2024-02-26T06:23:41;30.43;;;12.97;;
76125;SDS011;65174;48.138;21.002;2024-02-26T06:27:41;26.50;;;12.95;;
76125;SDS011;65174;48.138;21.002;2024-02-26T06:31:42;26.73;;;12.85;;
76125;SDS011;65174;48.138;21.002;2024-02-26T06:34:45;29.15;;;14.10;;
76125;SDS011;65174;48.138;21.002;2024-02-26T06:38:34;29.55;;;13.77;;
76125;SDS011;65174;48.138;21.002;2024-02-26T06:42:32;29.03;;;14.07;;
76125;SDS011;65174;48.138;21.002;2024-02-26T06:47:11;27.00;;;12.50;;
76125;SDS011;65174;48.138;21.002;2024-02-26T06:50:36;32.28;;;16.50;;
76125;SDS011;65174;48.138;21.002;2024-02-26T06:53:46;30.55;;;16.20;;
76125;SDS011;65174;48.138;21.002;2024-02-26T06:56:48;34.13;;;16.77;;
76125;SDS011;65174;48.138;21.002;2024-02-26T06:59:51;36.53;;;16.67;;
76125;SDS011;65174;48.138;21.002;2024-02-26T07:02:53;32.47;;;18.05;;
76125;SDS011;65174;48.138;21.002;2024-02-26T07:05:55;36.42;;;18.55;;
76125;SDS011;65174;48.138;21.002;2024-02-26T07:09:06;36.08;;;16.92;;
76125;SDS011;65174;48.138;21.002;2024-02-26T07:12:29;29.35;;;15.88;;
76125;SDS011;65174;48.138;21.002;2024-02-26T07:15:49;31.27;;;16.27;;
76125;SDS011;65174;48.138;21.002;2024-02-26T07:19:48;32.92;;;16.50;;
76125;SDS011;65174;48.138;21.002;2024-02-26T07:23:20;35.10;;;17.33;;
76125;SDS011;65174;48.138;21.002;2024-02-26T07:26:48;31.10;;;16.35;;
76125;SDS011;65174;48.138;21.002;2024-02-26T07:30:20;34.67;;;18.25;;
76125;SDS011;65174;48.138;21.002;2024-02-26T07:33:23;33.27;;;18.47;;
76125;SDS011;65174;48.138;21.002;2024-02-26T07:36:26;30.50;;;16.38;;
76125;SDS011;65174;48.138;21.002;2024-02-26T07:39:28;27.88;;;15.65;;
76125;SDS011;65174;48.138;21.002;2024-02-26T08:00:33;24.15;;;13.30;;
76125;SDS011;65174;48.138;21.002;2024-02-26T13:23:52;8.25;;;4.82;;
76125;SDS011;65174;48.138;21.002;2024-02-26T14:30:30;7.65;;;4.60;;
76125;SDS011;65174;48.138;21.002;2024-02-26T14:33:32;7.07;;;5.00;;
76125;SDS011;65174;48.138;21.002;2024-02-26T14:36:35;16.48;;;5.50;;
76125;SDS011;65174;48.138;21.002;2024-02-26T14:39:37;7.28;;;4.65;;
76125;SDS011;65174;48.138;21.002;2024-02-26T14:42:40;10.88;;;5.50;;
76125;SDS011;65174;48.138;21.002;2024-02-26T14:45:42;8.82;;;5.80;;
76125;SDS011;65174;48.138;21.002;2024-02-26T14:48:45;11.97;;;7.63;;
76125;SDS011;65174;48.138;21.002;2024-02-26T14:51:47;12.27;;;5.65;;
76125;SDS011;65174;48.138;21.002;2024-02-26T14:54:49;9.65;;;5.38;;
76125;SDS011;65174;48.138;21.002;2024-02-26T14:57:53;9.35;;;5.72;;
76125;SDS011;65174;48.138;21.002;2024-02-26T15:00:55;10.95;;;5.13;;
76125;SDS011;65174;48.138;21.002;2024-02-26T15:03:57;12.13;;;5.97;;
76125;SDS011;65174;48.138;21.002;2024-02-26T15:06:59;10.13;;;5.38;;
76125;SDS011;65174;48.138;21.002;2024-02-26T15:10:01;21.98;;;5.60;;
76125;SDS011;65174;48.138;21.002;2024-02-26T15:13:03;12.18;;;4.68;;
76125;SDS011;65174;48.138;21.002;2024-02-26T15:16:06;12.70;;;5.38;;
76125;SDS011;65174;48.138;21.002;2024-02-26T15:19:08;7.47;;;4.67;;
76125;SDS011;65174;48.138;21.002;2024-02-26T15:22:15;18.70;;;4.88;;
76125;SDS011;65174;48.138;21.002;2024-02-26T15:25:17;10.57;;;4.90;;
76125;SDS011;65174;48.138;21.002;2024-02-26T15:28:21;7.22;;;4.70;;
76125;SDS011;65174;48.138;21.002;2024-02-26T15:31:43;8.80;;;5.80;;
76125;SDS011;65174;48.138;21.002;2024-02-26T15:35:06;15.87;;;8.13;;
76125;SDS011;65174;48.138;21.002;2024-02-26T15:38:08;10.45;;;6.13;;
76125;SDS011;65174;48.138;21.002;2024-02-26T15:41:11;19.02;;;6.22;;
76125;SDS011;65174;48.138;21.002;2024-02-26T15:44:14;10.43;;;5.93;;
76125;SDS011;65174;48.138;21.002;2024-02-26T15:47:18;8.13;;;5.30;;
76125;SDS011;65174;48.138;21.002;2024-02-26T15:50:21;21.80;;;5.80;;
76125;SDS011;65174;48.138;21.002;2024-02-26T15:53:24;11.75;;;6.15;;
76125;SDS011;65174;48.138;21.002;2024-02-26T15:56:26;11.18;;;6.32;;
76125;SDS011;65174;48.138;21.002;2024-02-26T15:59:29;16.30;;;6.32;;
76125;SDS011;65174;48.138;21.002;2024-02-26T16:02:31;17.65;;;7.03;;
76125;SDS011;65174;48.138;21.002;2024-02-26T16:05:33;8.87;;;5.57;;
76125;SDS011;65174;48.138;21.002;2024-02-26T16:08:35;8.85;;;5.32;;
76125;SDS011;65174;48.138;21.002;2024-02-26T16:11:37;9.57;;;5.55;;
76125;SDS011;65174;48.138;21.002;2024-02-26T16:14:51;8.45;;;5.20;;
76125;SDS011;65174;48.138;21.002;2024-02-26T16:17:54;10.63;;;5.57;;
76125;SDS011;65174;48.138;21.002;2024-02-26T16:21:00;21.70;;;7.13;;
76125;SDS011;65174;48.138;21.002;2024-02-26T16:24:02;12.23;;;8.25;;
76125;SDS011;65174;48.138;21.002;2024-02-26T16:27:05;15.30;;;9.15;;
76125;SDS011;65174;48.138;21.002;2024-02-26T16:30:07;16.13;;;10.70;;
76125;SDS011;65174;48.138;21.002;2024-02-26T16:33:13;14.50;;;10.43;;
76125;SDS011;65174;48.138;21.002;2024-02-26T16:36:16;11.27;;;7.33;;
76125;SDS011;65174;48.138;21.002;2024-02-26T16:39:18;10.10;;;5.50;;
76125;SDS011;65174;48.138;21.002;2024-02-26T16:42:20;7.63;;;4.55;;
76125;SDS011;65174;48.138;21.002;2024-02-26T16:45:23;10.73;;;4.40;;
76125;SDS011;65174;48.138;21.002;2024-02-26T16:48:30;8.07;;;5.15;;
76125;SDS011;65174;48.138;21.002;2024-02-26T16:51:38;14.83;;;5.83;;
76125;SDS011;65174;48.138;21.002;2024-02-26T16:54:40;10.35;;;5.25;;
76125;SDS011;65174;48.138;21.002;2024-02-26T16:57:42;9.18;;;5.40;;
76125;SDS011;65174;48.138;21.002;2024-02-26T17:00:46;10.07;;;5.80;;
76125;SDS011;65174;48.138;21.002;2024-02-26T17:03:51;9.60;;;5.72;;
76125;SDS011;65174;48.138;21.002;2024-02-26T17:06:53;10.37;;;6.37;;
76125;SDS011;65174;48.138;21.002;2024-02-26T17:09:55;11.00;;;6.15;;
76125;SDS011;65174;48.138;21.002;2024-02-26T17:12:57;13.25;;;6.57;;
76125;SDS011;65174;48.138;21.002;2024-02-26T17:15:59;13.50;;;6.78;;
76125;SDS011;65174;48.138;21.002;2024-02-26T17:19:01;12.07;;;7.03;;
76125;SDS011;65174;48.138;21.002;2024-02-26T17:22:04;13.10;;;7.67;;
76125;SDS011;65174;48.138;21.002;2024-02-26T17:25:06;16.05;;;8.98;;
76125;SDS011;65174;48.138;21.002;2024-02-26T17:28:08;13.13;;;7.90;;
76125;SDS011;65174;48.138;21.002;2024-02-26T17:31:13;16.55;;;8.82;;
76125;SDS011;65174;48.138;21.002;2024-02-26T17:34:15;18.23;;;10.10;;
76125;SDS011;65174;48.138;21.002;2024-02-26T17:37:17;15.80;;;9.93;;
76125;SDS011;65174;48.138;21.002;2024-02-26T17:40:19;30.02;;;11.80;;
76125;SDS011;65174;48.138;21.002;2024-02-26T17:43:22;22.80;;;11.15;;
76125;SDS011;65174;48.138;21.002;2024-02-26T17:46:24;18.30;;;9.50;;
76125;SDS011;65174;48.138;21.002;2024-02-26T17:49:26;18.65;;;9.65;;
76125;SDS011;65174;48.138;21.002;2024-02-26T17:52:29;16.17;;;9.67;;
76125;SDS011;65174;48.138;21.002;2024-02-26T17:55:37;19.90;;;10.82;;
76125;SDS011;65174;48.138;21.002;2024-02-26T17:58:39;20.65;;;11.52;;
76125;SDS011;65174;48.138;21.002;2024-02-26T18:01:43;23.60;;;11.52;;
76125;SDS011;65174;48.138;21.002;2024-02-26T18:04:45;19.08;;;11.20;;
76125;SDS011;65174;48.138;21.002;2024-02-26T18:07:47;26.50;;;13.57;;
76125;SDS011;65174;48.138;21.002;2024-02-26T18:10:49;22.38;;;11.77;;
76125;SDS011;65174;48.138;21.002;2024-02-26T18:13:51;27.60;;;14.45;;
76125;SDS011;65174;48.138;21.002;2024-02-26T18:16:53;20.67;;;11.40;;
76125;SDS011;65174;48.138;21.002;2024-02-26T18:19:55;19.58;;;10.88;;
76125;SDS011;65174;48.138;21.002;2024-02-26T18:22:58;21.67;;;10.93;;
76125;SDS011;65174;48.138;21.002;2024-02-26T18:26:00;20.27;;;11.55;;
76125;SDS011;65174;48.138;21.002;2024-02-26T18:29:02;20.63;;;11.88;;
76125;SDS011;65174;48.138;21.002;2024-02-26T18:32:04;20.25;;;12.35;;
76125;SDS011;65174;48.138;21.002;2024-02-26T18:35:08;26.23;;;14.48;;
76125;SDS011;65174;48.138;21.002;2024-02-26T18:38:14;21.33;;;12.67;;
76125;SDS011;65174;48.138;21.002;2024-02-26T18:41:20;25.08;;;13.32;;
76125;SDS011;65174;48.138;21.002;2024-02-26T18:44:23;25.52;;;12.55;;
76125;SDS011;65174;48.138;21.002;2024-02-26T18:47:26;25.48;;;13.55;;
76125;SDS011;65174;48.138;21.002;2024-02-26T18:50:28;34.40;;;17.70;;
76125;SDS011;65174;48.138;21.002;2024-02-26T18:53:30;33.63;;;18.00;;
76125;SDS011;65174;48.138;21.002;2024-02-26T18:56:32;26.33;;;14.93;;
76125;SDS011;65174;48.138;21.002;2024-02-26T18:59:35;25.35;;;13.73;;
76125;SDS011;65174;48.138;21.002;2024-02-26T19:02:37;24.80;;;13.00;;
76125;SDS011;65174;48.138;21.002;2024-02-26T19:05:39;24.65;;;13.35;;
76125;SDS011;65174;48.138;21.002;2024-02-26T19:08:42;23.30;;;11.70;;
76125;SDS011;65174;48.138;21.002;2024-02-26T19:11:44;20.80;;;11.75;;
76125;SDS011;65174;48.138;21.002;2024-02-26T19:14:48;23.80;;;11.52;;
76125;SDS011;65174;48.138;21.002;2024-02-26T19:17:50;21.48;;;10.63;;
76125;SDS011;65174;48.138;21.002;2024-02-26T19:20:52;19.85;;;10.48;;
76125;SDS011;65174;48.138;21.002;2024-02-26T19:23:55;18.43;;;9.53;;
76125;SDS011;65174;48.138;21.002;2024-02-26T19:26:57;21.90;;;10.48;;
76125;SDS011;65174;48.138;21.002;2024-02-26T19:29:59;19.05;;;9.82;;
76125;SDS011;65174;48.138;21.002;2024-02-26T19:33:01;16.45;;;9.10;;
76125;SDS011;65174;48.138;21.002;2024-02-26T19:36:05;17.20;;;9.77;;
76125;SDS011;65174;48.138;21.002;2024-02-26T19:39:07;28.70;;;12.40;;
76125;SDS011;65174;48.138;21.002;2024-02-26T19:42:09;34.85;;;15.48;;
76125;SDS011;65174;48.138;21.002;2024-02-26T19:45:12;39.30;;;17.77;;
76125;SDS011;65174;48.138;21.002;2024-02-26T19:48:14;21.65;;;12.10;;
76125;SDS011;65174;48.138;21.002;2024-02-26T19:51:16;20.02;;;9.13;;
76125;SDS011;65174;48.138;21.002;2024-02-26T19:54:19;23.50;;;9.33;;
76125;SDS011;65174;48.138;21.002;2024-02-26T19:57:21;17.92;;;9.40;;
76125;SDS011;65174;48.138;21.002;2024-02-26T20:00:23;24.42;;;10.35;;
76125;SDS011;65174;48.138;21.002;2024-02-26T20:03:25;29.73;;;14.05;;
76125;SDS011;65174;48.138;21.002;2024-02-26T20:06:28;34.15;;;15.48;;
76125;SDS011;65174;48.138;21.002;2024-02-26T20:09:31;24.07;;;11.10;;
76125;SDS011;65174;48.138;21.002;2024-02-26T20:12:34;23.35;;;11.35;;
76125;SDS011;65174;48.138;21.002;2024-02-26T20:15:36;19.73;;;9.35;;
76125;SDS011;65174;48.138;21.002;2024-02-26T20:18:45;16.33;;;8.70;;
76125;SDS011;65174;48.138;21.002;2024-02-26T20:21:47;18.55;;;8.63;;
76125;SDS011;65174;48.138;21.002;2024-02-26T20:24:50;18.00;;;8.57;;
76125;SDS011;65174;48.138;21.002;2024-02-26T20:27:57;15.65;;;8.07;;
76125;SDS011;65174;48.138;21.002;2024-02-26T20:30:59;18.10;;;8.68;;
76125;SDS011;65174;48.138;21.002;2024-02-26T20:34:01;18.63;;;8.90;;
76125;SDS011;65174;48.138;21.002;2024-02-26T20:37:06;16.60;;;8.52;;
76125;SDS011;65174;48.138;21.002;2024-02-26T20:40:08;15.93;;;7.33;;
76125;SDS011;65174;48.138;21.002;2024-02-26T20:43:10;15.98;;;8.40;;
76125;SDS011;65174;48.138;21.002;2024-02-26T20:46:12;15.82;;;7.97;;
76125;SDS011;65174;48.138;21.002;2024-02-26T20:49:14;17.17;;;8.38;;
76125;SDS011;65174;48.138;21.002;2024-02-26T20:52:17;15.50;;;8.30;;
76125;SDS011;65174;48.138;21.002;2024-02-26T20:55:19;14.47;;;7.20;;
76125;SDS011;65174;48.138;21.002;2024-02-26T20:58:22;13.25;;;7.40;;
76125;SDS011;65174;48.138;21.002;2024-02-26T21:01:24;12.98;;;6.93;;
76125;SDS011;65174;48.138;21.002;2024-02-26T21:04:26;14.65;;;8.30;;
76125;SDS011;65174;48.138;21.002;2024-02-26T21:07:29;16.13;;;7.53;;
76125;SDS011;65174;48.138;21.002;2024-02-26T21:10:32;16.70;;;6.83;;
76125;SDS011;65174;48.138;21.002;2024-02-26T21:13:34;15.85;;;7.78;;
76125;SDS011;65174;48.138;21.002;2024-02-26T21:16:36;13.95;;;7.35;;
76125;SDS011;65174;48.138;21.002;2024-02-26T21:19:39;16.60;;;6.70;;
76125;SDS011;65174;48.138;21.002;2024-02-26T21:22:42;11.93;;;6.80;;
76125;SDS011;65174;48.138;21.002;2024-02-26T21:25:45;11.27;;;6.57;;
76125;SDS011;65174;48.138;21.002;2024-02-26T21:28:47;14.45;;;6.60;;
76125;SDS011;65174;48.138;21.002;2024-02-26T21:31:49;16.10;;;6.80;;
76125;SDS011;65174;48.138;21.002;2024-02-26T21:34:51;13.02;;;7.03;;
76125;SDS011;65174;48.138;21.002;2024-02-26T21:37:53;11.52;;;6.70;;
76125;SDS011;65174;48.138;21.002;2024-02-26T21:40:55;10.17;;;6.03;;
76125;SDS011;65174;48.138;21.002;2024-02-26T21:43:57;11.48;;;6.15;;
76125;SDS011;65174;48.138;21.002;2024-02-26T21:47:07;11.43;;;6.05;;
76125;SDS011;65174;48.138;21.002;2024-02-26T21:50:10;10.13;;;4.65;;
76125;SDS011;65174;48.138;21.002;2024-02-26T21:53:13;7.28;;;4.47;;
76125;SDS011;65174;48.138;21.002;2024-02-26T21:56:15;12.43;;;5.57;;
76125;SDS011;65174;48.138;21.002;2024-02-26T21:59:17;9.38;;;5.20;;
76125;SDS011;65174;48.138;21.002;2024-02-26T22:02:19;9.02;;;5.03;;
76125;SDS011;65174;48.138;21.002;2024-02-26T22:05:21;8.60;;;5.13;;
76125;SDS011;65174;48.138;21.002;2024-02-26T22:08:23;9.80;;;5.15;;
76125;SDS011;65174;48.138;21.002;2024-02-26T22:11:25;15.57;;;4.70;;
76125;SDS011;65174;48.138;21.002;2024-02-26T22:14:27;9.00;;;5.28;;
76125;SDS011;65174;48.138;21.002;2024-02-26T22:17:30;8.05;;;4.53;;
76125;SDS011;65174;48.138;21.002;2024-02-26T22:20:32;10.75;;;5.03;;
76125;SDS011;65174;48.138;21.002;2024-02-26T22:23:34;9.68;;;5.15;;
76125;SDS011;65174;48.138;21.002;2024-02-26T22:26:36;11.57;;;6.27;;
76125;SDS011;65174;48.138;21.002;2024-02-26T22:29:38;8.80;;;5.18;;
76125;SDS011;65174;48.138;21.002;2024-02-26T22:32:40;11.93;;;5.18;;
76125;SDS011;65174;48.138;21.002;2024-02-26T22:35:42;10.00;;;5.68;;
76125;SDS011;65174;48.138;21.002;2024-02-26T22:38:44;9.27;;;5.13;;
76125;SDS011;65174;48.138;21.002;2024-02-26T22:41:47;12.07;;;6.00;;
76125;SDS011;65174;48.138;21.002;2024-02-26T22:44:48;10.10;;;6.00;;
76125;SDS011;65174;48.138;21.002;2024-02-26T22:47:50;14.18;;;6.43;;
76125;SDS011;65174;48.138;21.002;2024-02-26T22:50:52;10.32;;;6.63;;
76125;SDS011;65174;48.138;21.002;2024-02-26T22:53:54;17.65;;;5.90;;
76125;SDS011;65174;48.138;21.002;2024-02-26T22:56:57;14.23;;;6.20;;
76125;SDS011;65174;48.138;21.002;2024-02-26T22:59:59;11.50;;;6.15;;
76125;SDS011;65174;48.138;21.002;2024-02-26T23:03:01;10.10;;;5.50;;
76125;SDS011;65174;48.138;21.002;2024-02-26T23:06:04;13.07;;;6.15;;
76125;SDS011;65174;48.138;21.002;2024-02-26T23:09:07;11.88;;;6.30;;
76125;SDS011;65174;48.138;21.002;2024-02-26T23:12:10;10.37;;;6.80;;
76125;SDS011;65174;48.138;21.002;2024-02-26T23:15:12;10.65;;;6.32;;
76125;SDS011;65174;48.138;21.002;2024-02-26T23:18:14;11.80;;;6.82;;
76125;SDS011;65174;48.138;21.002;2024-02-26T23:21:17;11.63;;;6.88;;
76125;SDS011;65174;48.138;21.002;2024-02-26T23:24:19;15.20;;;7.90;;
76125;SDS011;65174;48.138;21.002;2024-02-26T23:27:21;15.20;;;7.60;;
76125;SDS011;65174;48.138;21.002;2024-02-26T23:30:23;12.38;;;7.65;;
76125;SDS011;65174;48.138;21.002;2024-02-26T23:33:25;13.65;;;7.80;;
76125;SDS011;65174;48.138;21.002;2024-02-26T23:36:28;16.17;;;7.53;;
76125;SDS011;65174;48.138;21.002;2024-02-26T23:39:30;17.75;;;7.75;;
76125;SDS011;65174;48.138;21.002;2024-02-26T23:42:34;16.43;;;8.20;;
76125;SDS011;65174;48.138;21.002;2024-02-26T23:45:36;13.77;;;8.10;;
76125;SDS011;65174;48.138;21.002;2024-02-26T23:48:39;14.43;;;7.60;;
76125;SDS011;65174;48.138;21.002;2024-02-26T23:51:41;12.73;;;7.70;;
76125;SDS011;65174;48.138;21.002;2024-02-26T23:54:43;15.27;;;9.70;;
76125;SDS011;65174;48.138;21.002;2024-02-26T23:57:45;17.57;;;9.37;;
